Capitol Logistics 232


KPHX
Phoenix Sky Harbor International Airport
Phoenix, Arizona, US
KSMF
Sacramento International Airport
Sacramento, California, US

Activity Log

Date Flight Route Aircraft Duration
02/27/2019 CPX232 ZEPER1 SISIE DOVEE BTY KENNO DONNR SLMMR3 B763 2h 06m

Route Details

Aircraft Information
Primary: Boeing 767-300BDSF
Backup: Not Available
Route Data
Distance: 562nm
Sched. Duration: 1h 50m
Avg. Duration: 2h 06m (+56m)
Times Flown: 1
Recm'd Route: ZEPER1 SISIE DOVEE BTY KENNO DONNR SLMMR3
Planned Altitude: 36,000ft
Origin Wx: KPHX 210851Z 10005KT 10SM FEW160 BKN180 OVC200 18/03 A3006 RMK AO2 SLP166 T01830028 50000
Dest. Wx: KSMF 210853Z 32003KT 10SM SCT250 09/02 A3009 RMK AO2 SLP190 T00890022 58007
Notes:

Financial History
Total Freight: 102,602lbs
Average Load: 102,602lbs/flt
Fuel Used: 20,193lbs
Avg. Fuel Used: 20,193lbs/flt
Fuel Expense: $16,356
Avg. Fuel Expense: $16,356
Avg. Fuel Cost: $0.81/lbs
Total Gross Income: $130,305
Pilot Pay: $229
Total Expenses: $14,125
Total Revenue: $99,321
Average Revenue: $130,304.54